createdAt,value
2019-05-20T00:02:25.943Z,89.50
2019-05-20T00:04:47.186Z,89.70
2019-05-20T00:07:14.808Z,89.70
2019-05-20T00:09:42.401Z,89.70
2019-05-20T00:12:09.991Z,89.70
2019-05-20T00:14:37.623Z,89.80
2019-05-20T00:17:05.210Z,90.10
2019-05-20T00:19:33.564Z,89.60
2019-05-20T00:22:01.223Z,89.40
2019-05-20T00:24:28.844Z,89.60
2019-05-20T00:26:56.429Z,89.70
2019-05-20T00:29:24.044Z,89.80
2019-05-20T00:31:52.398Z,90.20
2019-05-20T00:34:34.143Z,90.20
2019-05-20T00:36:47.622Z,90.30
2019-05-20T00:39:17.954Z,90.80
2019-05-20T00:41:45.580Z,90.40
2019-05-20T00:44:13.162Z,90.40
2019-05-20T00:46:40.753Z,90.40
2019-05-20T00:49:08.384Z,90.50
2019-05-20T00:51:35.970Z,90.90
2019-05-20T00:54:03.555Z,90.50
2019-05-20T00:56:33.342Z,90.60
2019-05-20T00:59:00.925Z,90.60
2019-05-20T01:01:28.509Z,90.60
2019-05-20T01:03:56.133Z,90.60
2019-05-20T01:06:23.718Z,90.70
2019-05-20T01:08:51.360Z,90.70
2019-05-20T01:11:19.719Z,90.50
2019-05-20T01:13:47.298Z,90.80
2019-05-20T01:16:14.920Z,90.90
2019-05-20T01:18:42.509Z,91.00
2019-05-20T01:21:10.094Z,91.10
2019-05-20T01:23:37.723Z,91.10
2019-05-20T01:26:05.309Z,91.40
2019-05-20T01:28:33.666Z,90.80
2019-05-20T01:31:01.275Z,90.80
2019-05-20T01:33:28.874Z,91.00
2019-05-20T01:35:56.527Z,90.60
2019-05-20T01:38:24.084Z,90.60
2019-05-20T01:40:51.685Z,90.60
2019-05-20T01:43:19.299Z,90.60
2019-05-20T01:45:47.399Z,90.70
2019-05-20T01:48:15.015Z,90.80
2019-05-20T01:50:43.381Z,90.90
2019-05-20T01:53:11.036Z,90.90
2019-05-20T01:55:38.616Z,91.00
2019-05-20T01:58:06.970Z,91.20
2019-05-20T02:00:34.597Z,91.10
2019-05-20T02:03:02.192Z,91.10
2019-05-20T02:05:29.787Z,91.30
2019-05-20T02:07:58.201Z,90.90
2019-05-20T02:10:25.777Z,90.90
2019-05-20T02:12:53.360Z,90.90
2019-05-20T02:15:33.720Z,90.90
2019-05-20T02:18:01.315Z,90.90
2019-05-20T02:20:28.914Z,91.10
2019-05-20T02:22:56.528Z,90.70
2019-05-20T02:25:24.883Z,90.40
2019-05-20T02:27:53.059Z,90.40
2019-05-20T02:30:20.656Z,90.10
2019-05-20T02:32:49.011Z,90.20
2019-05-20T02:35:16.630Z,90.20
2019-05-20T02:37:44.229Z,90.30
2019-05-20T02:40:11.808Z,90.30
2019-05-20T02:42:40.196Z,90.80
2019-05-20T02:45:08.555Z,90.50
2019-05-20T02:47:36.145Z,90.50
2019-05-20T02:50:03.787Z,90.60
2019-05-20T02:52:31.370Z,90.60
2019-05-20T02:54:59.721Z,90.60
2019-05-20T02:57:27.335Z,90.60
2019-05-20T02:59:54.932Z,90.70
2019-05-20T03:02:22.568Z,90.60
2019-05-20T03:04:50.159Z,90.60
2019-05-20T03:07:17.742Z,90.80
2019-05-20T03:09:46.128Z,90.70
2019-05-20T03:12:14.482Z,90.20
2019-05-20T03:14:42.062Z,90.20
2019-05-20T03:17:10.453Z,90.50
2019-05-20T03:19:38.804Z,90.20
2019-05-20T03:22:06.395Z,90.20
2019-05-20T03:24:34.780Z,90.50
2019-05-20T03:27:03.178Z,90.60
2019-05-20T03:29:30.795Z,90.60
2019-05-20T03:31:58.393Z,90.70
2019-05-20T03:34:45.635Z,90.80
2019-05-20T03:36:53.589Z,90.80
2019-05-20T03:39:21.183Z,90.90
2019-05-20T03:41:49.084Z,91.00
2019-05-20T03:44:16.709Z,91.00
2019-05-20T03:46:44.302Z,91.00
2019-05-20T03:49:11.885Z,91.10
2019-05-20T03:51:39.517Z,91.10
2019-05-20T03:54:07.111Z,91.10
2019-05-20T03:56:34.696Z,91.00
2019-05-20T03:59:03.091Z,91.10
2019-05-20T04:01:31.434Z,91.20
2019-05-20T04:03:59.025Z,91.10
2019-05-20T04:06:27.409Z,91.20
2019-05-20T04:08:55.763Z,91.20
2019-05-20T04:11:23.486Z,91.20
2019-05-20T04:13:51.074Z,91.20
2019-05-20T04:16:18.651Z,91.30
2019-05-20T04:18:46.285Z,91.00
2019-05-20T04:21:13.869Z,90.90
2019-05-20T04:23:41.490Z,91.10
2019-05-20T04:26:09.110Z,91.10
2019-05-20T04:28:36.706Z,91.00
2019-05-20T04:31:04.291Z,90.70
2019-05-20T04:33:31.902Z,90.60
2019-05-20T04:36:00.257Z,91.00
2019-05-20T04:38:27.900Z,90.80
2019-05-20T04:40:55.489Z,90.90
2019-05-20T04:43:23.080Z,91.20
2019-05-20T04:45:51.486Z,90.80
2019-05-20T04:48:19.072Z,90.80
2019-05-20T04:50:46.652Z,90.80
2019-05-20T04:53:14.288Z,90.80
2019-05-20T04:55:41.871Z,90.90
2019-05-20T04:58:09.461Z,90.80
2019-05-20T05:00:38.235Z,90.30
2019-05-20T05:03:05.825Z,90.30
2019-05-20T05:05:37.825Z,90.20
2019-05-20T05:08:01.041Z,90.10
2019-05-20T05:10:29.395Z,89.90
2019-05-20T05:12:56.990Z,89.90
2019-05-20T05:15:25.426Z,89.60
2019-05-20T05:17:53.009Z,89.60
2019-05-20T05:20:20.594Z,88.70
2019-05-20T05:22:48.253Z,88.30
2019-05-20T05:25:18.305Z,88.20
2019-05-20T05:27:45.932Z,88.00
2019-05-20T05:30:14.301Z,87.80
2019-05-20T05:32:42.722Z,87.70
2019-05-20T05:35:13.036Z,87.70
2019-05-20T05:37:40.626Z,87.60
2019-05-20T05:40:08.466Z,87.70
2019-05-20T05:42:35.838Z,87.60
2019-05-20T05:45:03.431Z,87.60
2019-05-20T05:47:31.071Z,87.70
2019-05-20T05:49:58.657Z,87.80
2019-05-20T05:52:26.247Z,88.00
2019-05-20T05:54:54.687Z,87.40
2019-05-20T05:57:22.277Z,87.40
2019-05-20T05:59:49.874Z,86.70
2019-05-20T06:02:17.558Z,86.80
2019-05-20T06:04:45.137Z,87.00
2019-05-20T06:07:12.721Z,86.90
2019-05-20T06:09:41.097Z,87.00
2019-05-20T06:12:08.718Z,86.60
2019-05-20T06:14:36.300Z,86.30
2019-05-20T06:17:03.937Z,86.80
2019-05-20T06:19:31.522Z,86.30
2019-05-20T06:21:59.116Z,86.30
2019-05-20T06:24:26.759Z,86.70
2019-05-20T06:26:54.350Z,86.90
2019-05-20T06:29:22.713Z,86.80
2019-05-20T06:31:50.355Z,86.80
2019-05-20T06:34:17.947Z,86.60
2019-05-20T06:36:45.536Z,87.00
2019-05-20T06:39:13.170Z,86.30
2019-05-20T06:41:40.745Z,86.20
2019-05-20T06:44:09.412Z,85.40
2019-05-20T06:46:36.995Z,85.40
2019-05-20T06:49:05.360Z,83.20
2019-05-20T06:51:33.000Z,83.10
2019-05-20T06:54:00.590Z,83.10
2019-05-20T06:56:28.950Z,83.30
2019-05-20T06:58:56.903Z,83.30
2019-05-20T07:01:25.232Z,83.20
2019-05-20T07:03:52.838Z,82.50
2019-05-20T07:06:20.431Z,82.00
2019-05-20T07:08:48.019Z,82.60
2019-05-20T07:11:16.814Z,80.50
2019-05-20T07:13:44.379Z,80.50
2019-05-20T07:16:12.003Z,80.60
2019-05-20T07:18:39.609Z,80.70
2019-05-20T07:21:07.209Z,79.90
2019-05-20T07:23:34.804Z,79.60
2019-05-20T07:26:02.414Z,79.80
2019-05-20T07:28:30.026Z,79.70
2019-05-20T07:30:57.707Z,79.00
2019-05-20T07:33:25.218Z,79.30
2019-05-20T07:35:52.808Z,79.00
2019-05-20T07:38:20.764Z,78.40
2019-05-20T07:40:48.328Z,78.00
2019-05-20T07:43:16.482Z,78.10
2019-05-20T07:45:44.150Z,78.20
2019-05-20T07:48:11.745Z,78.00
2019-05-20T07:50:40.173Z,78.50
2019-05-20T07:53:08.516Z,77.80
2019-05-20T07:55:39.569Z,78.00
2019-05-20T07:58:07.218Z,78.00
2019-05-20T08:00:35.570Z,77.90
2019-05-20T08:03:03.210Z,77.80
2019-05-20T08:05:31.538Z,78.20
2019-05-20T08:07:59.963Z,77.30
2019-05-20T08:10:27.545Z,77.30
2019-05-20T08:12:55.141Z,77.50
2019-05-20T08:15:22.723Z,76.80
2019-05-20T08:17:50.361Z,76.40
2019-05-20T08:20:17.949Z,75.80
2019-05-20T08:22:45.547Z,75.80
2019-05-20T08:25:13.639Z,75.70
2019-05-20T08:27:41.228Z,75.60
2019-05-20T08:30:09.595Z,74.80
2019-05-20T08:32:37.215Z,74.60
2019-05-20T08:35:07.725Z,74.10
2019-05-20T08:37:44.870Z,74.40
2019-05-20T08:40:02.969Z,74.40
2019-05-20T08:42:31.872Z,75.20
2019-05-20T08:44:59.843Z,74.40
2019-05-20T08:47:27.426Z,74.60
2019-05-20T08:49:55.174Z,74.80
2019-05-20T08:52:23.470Z,75.50
2019-05-20T08:54:51.068Z,75.40
2019-05-20T08:57:18.735Z,75.70
2019-05-20T08:59:46.352Z,75.90
2019-05-20T09:02:13.962Z,75.80
2019-05-20T09:04:41.591Z,75.60
2019-05-20T09:07:09.214Z,75.40
2019-05-20T09:09:37.575Z,74.70
2019-05-20T09:12:05.172Z,74.60
2019-05-20T09:14:32.753Z,74.80
2019-05-20T09:17:00.916Z,74.30
2019-05-20T09:19:29.078Z,73.80
2019-05-20T09:21:56.760Z,73.90
2019-05-20T09:24:25.061Z,74.00
2019-05-20T09:26:53.436Z,73.70
2019-05-20T09:29:21.047Z,73.70
2019-05-20T09:31:48.677Z,73.50
2019-05-20T09:34:17.032Z,73.50
2019-05-20T09:36:44.623Z,73.40
2019-05-20T09:39:12.275Z,73.30
2019-05-20T09:41:39.846Z,73.00
2019-05-20T09:44:08.206Z,72.30
2019-05-20T09:46:35.864Z,72.30
2019-05-20T09:49:03.451Z,71.70
2019-05-20T09:51:31.038Z,71.50
2019-05-20T09:53:58.687Z,71.40
2019-05-20T09:56:27.015Z,71.60
2019-05-20T09:58:54.643Z,71.60
2019-05-20T10:01:22.254Z,70.60
2019-05-20T10:03:49.834Z,70.90
2019-05-20T10:06:18.440Z,70.70
2019-05-20T10:08:45.995Z,70.70
2019-05-20T10:11:13.605Z,70.40
2019-05-20T10:13:41.252Z,69.60
2019-05-20T10:16:08.871Z,69.20
2019-05-20T10:18:38.582Z,69.40
2019-05-20T10:21:04.075Z,69.70
2019-05-20T10:23:31.679Z,69.90
2019-05-20T10:25:59.378Z,69.60
2019-05-20T10:28:26.953Z,68.70
2019-05-20T10:30:54.952Z,68.40
2019-05-20T10:33:22.575Z,67.30
2019-05-20T10:35:50.214Z,67.10
2019-05-20T10:38:18.579Z,66.90
2019-05-20T10:40:47.045Z,66.50
2019-05-20T10:43:14.570Z,66.40
2019-05-20T10:45:42.252Z,66.50
2019-05-20T10:48:10.811Z,66.30
2019-05-20T10:50:38.403Z,65.80
2019-05-20T10:53:06.756Z,65.20
2019-05-20T10:55:34.931Z,65.20
2019-05-20T10:58:02.516Z,65.30
2019-05-20T11:00:30.869Z,64.60
2019-05-20T11:02:58.856Z,64.60
2019-05-20T11:05:26.429Z,64.40
2019-05-20T11:07:54.810Z,65.30
2019-05-20T11:10:22.423Z,64.60
2019-05-20T11:12:50.005Z,63.50
2019-05-20T11:15:17.636Z,63.30
2019-05-20T11:17:45.222Z,63.40
2019-05-20T11:20:12.823Z,63.00
2019-05-20T11:22:41.197Z,63.10
2019-05-20T11:25:09.844Z,62.70
2019-05-20T11:27:37.469Z,62.70
2019-05-20T11:30:05.105Z,63.10
2019-05-20T11:32:32.634Z,63.50
2019-05-20T11:35:00.262Z,63.50
2019-05-20T11:37:27.838Z,63.90
2019-05-20T11:39:55.424Z,63.30
2019-05-20T11:42:23.093Z,63.30
2019-05-20T11:44:50.693Z,62.70
2019-05-20T11:47:18.278Z,62.50
2019-05-20T11:49:45.924Z,61.40
2019-05-20T11:52:13.504Z,60.30
2019-05-20T11:54:41.086Z,60.80
2019-05-20T11:57:08.683Z,61.40
2019-05-20T11:59:36.273Z,61.20
2019-05-20T12:02:04.308Z,60.40
2019-05-20T12:04:31.546Z,60.30
2019-05-20T12:06:59.120Z,60.50
2019-05-20T12:09:26.752Z,60.90
2019-05-20T12:11:54.362Z,61.00
2019-05-20T12:14:21.919Z,61.20
2019-05-20T12:16:49.554Z,61.20
2019-05-20T12:19:17.125Z,61.10
2019-05-20T12:21:44.714Z,61.10
2019-05-20T12:24:13.106Z,61.50
2019-05-20T12:26:40.686Z,60.80
2019-05-20T12:29:08.259Z,60.10
2019-05-20T12:31:35.938Z,60.10
2019-05-20T12:34:03.512Z,60.20
2019-05-20T12:36:31.082Z,59.80
2019-05-20T12:38:58.719Z,59.70
2019-05-20T12:41:26.511Z,59.90
2019-05-20T12:44:10.811Z,58.50
2019-05-20T12:46:21.727Z,58.50
2019-05-20T12:48:49.428Z,58.20
2019-05-20T12:51:16.876Z,58.30
2019-05-20T12:53:45.266Z,58.90
2019-05-20T12:56:12.833Z,58.90
2019-05-20T12:58:40.411Z,59.00
2019-05-20T13:01:08.424Z,59.00
2019-05-20T13:03:35.997Z,59.20
2019-05-20T13:06:03.603Z,59.50
2019-05-20T13:08:31.945Z,59.40
2019-05-20T13:10:59.518Z,59.40
2019-05-20T13:13:27.936Z,59.60
2019-05-20T13:15:55.512Z,59.50
2019-05-20T13:18:23.091Z,59.80
2019-05-20T13:20:50.708Z,60.30
2019-05-20T13:23:18.282Z,59.90
2019-05-20T13:25:45.856Z,60.40
2019-05-20T13:28:16.750Z,60.80
2019-05-20T13:30:45.095Z,59.70
2019-05-20T13:33:12.669Z,59.70
2019-05-20T13:35:40.260Z,59.70
2019-05-20T13:38:07.842Z,59.60
2019-05-20T13:40:45.730Z,59.90
2019-05-20T13:43:03.326Z,59.60
2019-05-20T13:45:30.907Z,59.60
2019-05-20T13:47:59.290Z,60.40
2019-05-20T13:50:27.635Z,60.60
2019-05-20T13:52:55.217Z,60.50
2019-05-20T13:55:23.587Z,60.10
2019-05-20T13:57:51.202Z,60.10
2019-05-20T14:00:18.809Z,59.70
2019-05-20T14:02:46.382Z,59.30
2019-05-20T14:05:14.736Z,59.10
2019-05-20T14:07:42.361Z,59.00
2019-05-20T14:10:09.942Z,58.90
2019-05-20T14:12:37.529Z,58.80
2019-05-20T14:15:08.159Z,59.20
2019-05-20T14:17:35.836Z,59.20
2019-05-20T14:20:03.573Z,59.80
2019-05-20T14:22:31.923Z,60.00
2019-05-20T14:24:59.952Z,60.00
2019-05-20T14:27:27.121Z,59.70
2019-05-20T14:29:55.492Z,59.90
2019-05-20T14:32:23.840Z,60.00
2019-05-20T14:34:51.473Z,59.70
2019-05-20T14:37:19.042Z,60.00
2019-05-20T14:39:46.808Z,60.10
2019-05-20T14:42:15.101Z,60.00
2019-05-20T14:44:42.679Z,60.00
2019-05-20T14:47:10.259Z,59.80
2019-05-20T14:49:37.899Z,59.60
2019-05-20T14:52:05.465Z,59.60
2019-05-20T14:54:33.073Z,59.80
2019-05-20T14:57:00.678Z,59.50
2019-05-20T14:59:28.265Z,59.70
2019-05-20T15:01:55.900Z,60.00
2019-05-20T15:04:23.482Z,59.80
2019-05-20T15:06:51.059Z,59.80
2019-05-20T15:09:19.452Z,60.60
2019-05-20T15:11:47.796Z,61.20
2019-05-20T15:14:15.379Z,61.10
2019-05-20T15:16:43.770Z,61.50
2019-05-20T15:19:12.115Z,61.80
2019-05-20T15:21:39.807Z,61.80
2019-05-20T15:24:07.410Z,62.20
2019-05-20T15:26:34.980Z,62.70
2019-05-20T15:29:04.020Z,62.80
2019-05-20T15:31:30.699Z,63.00
2019-05-20T15:33:58.288Z,63.00
2019-05-20T15:36:26.017Z,63.30
2019-05-20T15:38:54.248Z,63.20
2019-05-20T15:41:21.827Z,63.00
2019-05-20T15:43:49.406Z,63.20
2019-05-20T15:46:17.771Z,63.60
2019-05-20T15:48:45.366Z,63.50
2019-05-20T15:51:13.260Z,63.60
2019-05-20T15:53:40.842Z,64.00
2019-05-20T15:56:08.446Z,64.70
2019-05-20T15:58:37.396Z,65.50
2019-05-20T16:01:05.014Z,65.30
2019-05-20T16:03:32.593Z,65.70
2019-05-20T16:06:00.657Z,66.40
2019-05-20T16:08:28.155Z,66.90
2019-05-20T16:10:55.740Z,67.10
2019-05-20T16:13:24.504Z,67.40
2019-05-20T16:15:52.074Z,67.40
2019-05-20T16:18:19.670Z,67.70
2019-05-20T16:20:47.800Z,68.00
2019-05-20T16:23:15.379Z,68.20
2019-05-20T16:25:42.965Z,68.50
2019-05-20T16:28:10.591Z,68.90
2019-05-20T16:30:38.183Z,69.00
2019-05-20T16:33:05.770Z,69.50
2019-05-20T16:35:33.618Z,70.00
2019-05-20T16:38:01.959Z,69.60
2019-05-20T16:40:29.668Z,69.40
2019-05-20T16:43:02.863Z,69.50
2019-05-20T16:45:30.488Z,69.70
2019-05-20T16:47:58.070Z,69.90
2019-05-20T16:50:25.654Z,70.10
2019-05-20T16:52:53.285Z,70.50
2019-05-20T16:55:21.640Z,71.30
2019-05-20T16:57:49.216Z,71.30
2019-05-20T17:00:30.941Z,71.70
2019-05-20T17:02:44.440Z,72.10
2019-05-20T17:05:12.019Z,72.40
2019-05-20T17:07:40.429Z,73.20
2019-05-20T17:10:08.016Z,73.10
2019-05-20T17:12:35.595Z,73.40
2019-05-20T17:15:03.220Z,73.50
2019-05-20T17:17:30.801Z,73.70
2019-05-20T17:19:58.465Z,74.20
2019-05-20T17:22:26.047Z,73.60
2019-05-20T17:24:53.636Z,73.70
2019-05-20T17:27:22.396Z,74.40
2019-05-20T17:29:49.975Z,74.40
2019-05-20T17:32:18.322Z,74.30
2019-05-20T17:34:46.309Z,74.20
2019-05-20T17:37:13.914Z,74.60
2019-05-20T17:39:42.237Z,74.80
2019-05-20T17:42:09.853Z,74.60
2019-05-20T17:44:38.193Z,75.20
2019-05-20T17:47:05.820Z,75.10
2019-05-20T17:49:33.415Z,75.60
2019-05-20T17:52:00.986Z,75.90
2019-05-20T17:54:28.623Z,75.50
2019-05-20T17:56:56.204Z,75.60
2019-05-20T17:59:23.787Z,75.90
2019-05-20T18:01:52.630Z,76.70
2019-05-20T18:04:20.220Z,76.60
2019-05-20T18:06:47.791Z,76.20
2019-05-20T18:09:15.421Z,76.70
2019-05-20T18:11:42.997Z,77.10
2019-05-20T18:14:10.896Z,77.60
2019-05-20T18:16:38.987Z,78.40
2019-05-20T18:19:06.565Z,78.30
2019-05-20T18:21:34.757Z,78.60
2019-05-20T18:24:02.380Z,79.00
2019-05-20T18:26:29.969Z,79.40
2019-05-20T18:28:58.072Z,79.80
2019-05-20T18:31:32.555Z,80.10
2019-05-20T18:33:54.002Z,80.00
2019-05-20T18:36:21.628Z,80.00
2019-05-20T18:38:49.807Z,79.50
2019-05-20T18:41:16.802Z,79.40
2019-05-20T18:43:44.430Z,79.60
2019-05-20T18:46:12.049Z,79.80
2019-05-20T18:48:39.615Z,80.20
2019-05-20T18:51:07.266Z,80.40
2019-05-20T18:53:34.832Z,80.60
2019-05-20T18:56:03.180Z,81.50
2019-05-20T18:58:31.187Z,80.70
2019-05-20T19:00:58.388Z,80.60
2019-05-20T19:03:26.906Z,80.80
2019-05-20T19:05:54.132Z,80.50
2019-05-20T19:08:21.714Z,80.60
2019-05-20T19:10:49.302Z,80.90
2019-05-20T19:13:17.672Z,82.20
2019-05-20T19:15:45.275Z,82.10
2019-05-20T19:18:12.874Z,81.70
2019-05-20T19:20:41.168Z,81.90
2019-05-20T19:23:08.809Z,82.30
2019-05-20T19:25:38.067Z,82.70
2019-05-20T19:28:03.960Z,83.10
2019-05-20T19:30:31.595Z,83.40
2019-05-20T19:32:59.175Z,83.70
2019-05-20T19:35:26.762Z,83.70
2019-05-20T19:37:55.187Z,83.90
2019-05-20T19:40:22.802Z,83.80
2019-05-20T19:42:50.555Z,83.30
2019-05-20T19:45:19.015Z,83.30
2019-05-20T19:47:46.596Z,83.60
2019-05-20T19:50:14.221Z,83.10
2019-05-20T19:52:41.857Z,82.60
2019-05-20T19:55:09.463Z,82.20
2019-05-20T19:57:37.050Z,82.40
2019-05-20T20:00:05.699Z,83.10
2019-05-20T20:02:33.284Z,83.30
2019-05-20T20:05:00.870Z,82.90
2019-05-20T20:07:28.903Z,83.20
2019-05-20T20:09:56.067Z,84.70
2019-05-20T20:12:23.697Z,84.80
2019-05-20T20:14:51.294Z,84.20
2019-05-20T20:17:18.884Z,84.50
2019-05-20T20:19:47.353Z,85.30
2019-05-20T20:22:15.713Z,84.70
2019-05-20T20:24:43.335Z,84.70
2019-05-20T20:27:10.954Z,84.40
2019-05-20T20:29:38.532Z,84.50
2019-05-20T20:32:07.289Z,84.70
2019-05-20T20:34:34.870Z,84.70
2019-05-20T20:37:02.451Z,84.60
2019-05-20T20:39:30.086Z,85.00
2019-05-20T20:41:57.663Z,84.50
2019-05-20T20:44:26.040Z,83.90
2019-05-20T20:46:54.492Z,84.30
2019-05-20T20:49:22.078Z,83.50
2019-05-20T20:51:50.432Z,84.30
2019-05-20T20:54:18.057Z,83.50
2019-05-20T20:56:45.628Z,83.50
2019-05-20T20:59:13.211Z,83.60
2019-05-20T21:01:40.832Z,83.70
2019-05-20T21:04:08.415Z,84.00
2019-05-20T21:06:37.107Z,84.00
2019-05-20T21:09:04.695Z,83.40
2019-05-20T21:11:32.273Z,83.60
2019-05-20T21:13:59.900Z,83.80
2019-05-20T21:16:27.486Z,84.20
2019-05-20T21:18:55.078Z,84.50
2019-05-20T21:21:23.474Z,85.50
2019-05-20T21:23:51.083Z,85.50
2019-05-20T21:26:18.640Z,85.80
2019-05-20T21:28:46.263Z,86.00
2019-05-20T21:31:13.836Z,86.20
2019-05-20T21:33:41.413Z,86.60
2019-05-20T21:36:09.507Z,86.90
2019-05-20T21:38:37.089Z,87.10
2019-05-20T21:41:04.699Z,87.20
2019-05-20T21:43:32.551Z,87.40
2019-05-20T21:46:00.137Z,86.80
2019-05-20T21:48:27.719Z,86.70
2019-05-20T21:50:55.336Z,86.70
2019-05-20T21:53:22.926Z,86.80
2019-05-20T21:55:50.549Z,86.90
2019-05-20T21:58:18.128Z,86.10
2019-05-20T22:00:48.150Z,86.00
2019-05-20T22:03:23.974Z,86.10
2019-05-20T22:05:44.144Z,86.30
2019-05-20T22:08:11.759Z,86.20
2019-05-20T22:10:39.340Z,86.40
2019-05-20T22:13:06.927Z,86.40
2019-05-20T22:15:34.552Z,85.70
2019-05-20T22:18:02.131Z,85.70
2019-05-20T22:20:29.721Z,85.70
2019-05-20T22:23:15.803Z,85.80
2019-05-20T22:25:43.379Z,85.90
2019-05-20T22:28:12.860Z,86.90
2019-05-20T22:30:39.688Z,86.10
2019-05-20T22:33:07.272Z,86.20
2019-05-20T22:35:34.855Z,86.60
2019-05-20T22:38:03.247Z,85.80
2019-05-20T22:40:30.827Z,85.70
2019-05-20T22:42:58.402Z,85.60
2019-05-20T22:45:26.281Z,85.70
2019-05-20T22:47:53.859Z,85.80
2019-05-20T22:50:22.209Z,85.90
2019-05-20T22:52:49.793Z,85.80
2019-05-20T22:55:17.379Z,86.00
2019-05-20T22:57:44.998Z,86.00
2019-05-20T23:00:12.582Z,86.40
2019-05-20T23:02:40.182Z,85.70
2019-05-20T23:05:08.543Z,86.30
2019-05-20T23:07:36.122Z,85.90
2019-05-20T23:10:05.235Z,86.20
2019-05-20T23:12:32.826Z,86.00
2019-05-20T23:15:00.404Z,86.20
2019-05-20T23:17:28.014Z,86.40
2019-05-20T23:19:55.591Z,86.70
2019-05-20T23:22:23.172Z,86.90
2019-05-20T23:24:50.791Z,87.00
2019-05-20T23:27:19.150Z,87.40
2019-05-20T23:29:46.731Z,87.30
2019-05-20T23:32:15.103Z,87.90
2019-05-20T23:34:43.451Z,87.20
2019-05-20T23:37:11.081Z,87.20
2019-05-20T23:39:38.664Z,87.00
2019-05-20T23:42:06.243Z,87.50
2019-05-20T23:44:33.854Z,87.00
2019-05-20T23:47:01.457Z,87.00
2019-05-20T23:49:29.018Z,87.40
2019-05-20T23:51:56.639Z,87.00
2019-05-20T23:54:24.214Z,87.00
2019-05-20T23:56:51.803Z,87.20
2019-05-20T23:59:19.442Z,87.20
